No particular awareness of the weather is required.    There are no Weather-warnings


Meteo18 Weather Cam more information Meteo18 Weather Cam


Thunder radar more information blitzortung!


Rain radar more information rain snow radar


Visit our other weather sites:

Template documentation
and downloads

And another site



Weather Underground History page Text

Daily Summary for August 22, 2017 Units:  Both    English   Metric
« Previous Day
Next Day »
Daily Weekly Monthly Yearly Custom
  High: Low: Average:
Temperature: 86.5 °F /  30.3 °C 58.1 °F /  14.5 °C 73.2 °F /  22.9 °C
Dew Point: 62.2 °F /  16.8 °C 55 °F /  12.8 °C 59 °F /  15 °C
Humidity: 90 % 41 % 64 %
Wind Speed: 12 mph /  19.3 km/h - 1.9 mph /  3 km/h
Wind Gust: 13 mph /  20.9 km/h - -
Wind:- - SE
Pressure: 30.2 in /  1021.9 hPa 30 in /  1015.1 hPa -
Precipitation: 0 in /  0.0 mm    
Historical Graphs
 
 
Tabular Data for August 22, 2017
Time Temperature Dew Point Pressure Wind Wind Speed Wind Gust Humidity Rainfall Rate (Hourly)
00:02 65.8 °F /  18.8 °C 58.8 °F /  14.9 °C 30.2 in /  1021.9 hPa Calm   3 mph /  4.8 km/h 78 % 0 in /  0.0 mm
00:12 65.5 °F /  18.6 °C 58.5 °F /  14.7 °C 30.2 in /  1021.9 hPa Calm   2 mph /  3.2 km/h 78 % 0 in /  0.0 mm
00:17 65.1 °F /  18.4 °C 58.5 °F /  14.7 °C 30.2 in /  1021.6 hPa Calm   2 mph /  3.2 km/h 79 % 0 in /  0.0 mm
00:22 64.9 °F /  18.3 °C 58.3 °F /  14.6 °C 30.2 in /  1021.6 hPa North 1 mph /  1.6 km/h 2 mph /  3.2 km/h 79 % 0 in /  0.0 mm
00:27 64.9 °F /  18.3 °C 58.3 °F /  14.6 °C 30.2 in /  1021.6 hPa Calm   2 mph /  3.2 km/h 79 % 0 in /  0.0 mm
00:32 64.8 °F /  18.2 °C 58.1 °F /  14.5 °C 30.2 in /  1021.6 hPa Calm   2 mph /  3.2 km/h 79 % 0 in /  0.0 mm
00:42 64.2 °F /  17.9 °C 57.9 °F /  14.4 °C 30.2 in /  1021.6 hPa Calm   1 mph /  1.6 km/h 80 % 0 in /  0.0 mm
00:52 64.2 °F /  17.9 °C 57.9 °F /  14.4 °C 30.2 in /  1021.6 hPa Calm   1 mph /  1.6 km/h 80 % 0 in /  0.0 mm
01:02 63.9 °F /  17.7 °C 57.9 °F /  14.4 °C 30.2 in /  1021.6 hPa Calm   1 mph /  1.6 km/h 81 % 0 in /  0.0 mm
01:12 63.7 °F /  17.6 °C 58.1 °F /  14.5 °C 30.2 in /  1021.2 hPa Calm     82 % 0 in /  0.0 mm
01:17 63.3 °F /  17.4 °C 57.7 °F /  14.3 °C 30.2 in /  1021.2 hPa Calm     82 % 0 in /  0.0 mm
01:22 63.1 °F /  17.3 °C 57.9 °F /  14.4 °C 30.2 in /  1021.2 hPa Calm     83 % 0 in /  0.0 mm
01:32 63.7 °F /  17.6 °C 58.1 °F /  14.5 °C 30.2 in /  1021.2 hPa NW 1 mph /  1.6 km/h   82 % 0 in /  0.0 mm
01:37 63.7 °F /  17.6 °C 58.1 °F /  14.5 °C 30.2 in /  1021.2 hPa Calm   1 mph /  1.6 km/h 82 % 0 in /  0.0 mm
01:42 63.7 °F /  17.6 °C 58.1 °F /  14.5 °C 30.2 in /  1021.2 hPa Calm   1 mph /  1.6 km/h 82 % 0 in /  0.0 mm
01:52 63.7 °F /  17.6 °C 57.7 °F /  14.3 °C 30.2 in /  1021.2 hPa Calm   1 mph /  1.6 km/h 81 % 0 in /  0.0 mm
02:02 62.8 °F /  17.1 °C 57.6 °F /  14.2 °C 30.2 in /  1021.2 hPa Calm   1 mph /  1.6 km/h 83 % 0 in /  0.0 mm
02:12 62.6 °F /  17.0 °C 57.7 °F /  14.3 °C 30.2 in /  1020.9 hPa WNW 1 mph /  1.6 km/h 2 mph /  3.2 km/h 84 % 0 in /  0.0 mm
02:17 62.4 °F /  16.9 °C 57.6 °F /  14.2 °C 30.2 in /  1020.9 hPa Calm   2 mph /  3.2 km/h 84 % 0 in /  0.0 mm
02:22 62.4 °F /  16.9 °C 57.6 °F /  14.2 °C 30.2 in /  1020.9 hPa Calm   2 mph /  3.2 km/h 84 % 0 in /  0.0 mm
02:32 62.6 °F /  17.0 °C 57.7 °F /  14.3 °C 30.2 in /  1020.9 hPa Calm   1 mph /  1.6 km/h 84 % 0 in /  0.0 mm
02:37 62.6 °F /  17.0 °C 57.4 °F /  14.1 °C 30.2 in /  1020.9 hPa North 1 mph /  1.6 km/h 1 mph /  1.6 km/h 83 % 0 in /  0.0 mm
02:42 62.4 °F /  16.9 °C 57.2 °F /  14.0 °C 30.2 in /  1020.9 hPa Calm   1 mph /  1.6 km/h 83 % 0 in /  0.0 mm
02:52 62.6 °F /  17.0 °C 57.4 °F /  14.1 °C 30.2 in /  1020.9 hPa Calm   1 mph /  1.6 km/h 83 % 0 in /  0.0 mm
02:57 62.4 °F /  16.9 °C 57.2 °F /  14.0 °C 30.2 in /  1020.9 hPa Calm   1 mph /  1.6 km/h 83 % 0 in /  0.0 mm
03:02 62.2 °F /  16.8 °C 57.4 °F /  14.1 °C 30.2 in /  1020.9 hPa Calm   1 mph /  1.6 km/h 84 % 0 in /  0.0 mm
03:07 62.2 °F /  16.8 °C 57.7 °F /  14.3 °C 30.2 in /  1020.9 hPa Calm   1 mph /  1.6 km/h 85 % 0 in /  0.0 mm
03:12 62.4 °F /  16.9 °C 57.6 °F /  14.2 °C 30.2 in /  1020.9 hPa Calm   1 mph /  1.6 km/h 84 % 0 in /  0.0 mm
03:17 62.6 °F /  17.0 °C 57.4 °F /  14.1 °C 30.2 in /  1020.9 hPa Calm   1 mph /  1.6 km/h 83 % 0 in /  0.0 mm
03:27 62.1 °F /  16.7 °C 57.2 °F /  14.0 °C 30.2 in /  1020.9 hPa WNW 1 mph /  1.6 km/h 2 mph /  3.2 km/h 84 % 0 in /  0.0 mm
03:32 62.1 °F /  16.7 °C 57.2 °F /  14.0 °C 30.2 in /  1020.9 hPa WNW 1 mph /  1.6 km/h 2 mph /  3.2 km/h 84 % 0 in /  0.0 mm
03:42 61.3 °F /  16.3 °C 57.2 °F /  14.0 °C 30.2 in /  1020.9 hPa WNW 1 mph /  1.6 km/h 2 mph /  3.2 km/h 86 % 0 in /  0.0 mm
03:47 61.5 °F /  16.4 °C 57.4 °F /  14.1 °C 30.2 in /  1020.9 hPa WNW 1 mph /  1.6 km/h 2 mph /  3.2 km/h 86 % 0 in /  0.0 mm
03:52 62.1 °F /  16.7 °C 57.6 °F /  14.2 °C 30.2 in /  1020.9 hPa Calm   2 mph /  3.2 km/h 85 % 0 in /  0.0 mm
04:02 61 °F /  16.1 °C 56.8 °F /  13.8 °C 30.2 in /  1020.9 hPa WNW 2 mph /  3.2 km/h 2 mph /  3.2 km/h 86 % 0 in /  0.0 mm
04:07 60.8 °F /  16.0 °C 56.8 °F /  13.8 °C 30.2 in /  1020.9 hPa Calm   2 mph /  3.2 km/h 87 % 0 in /  0.0 mm
04:12 61.2 °F /  16.2 °C 57 °F /  13.9 °C 30.2 in /  1020.9 hPa Calm   2 mph /  3.2 km/h 86 % 0 in /  0.0 mm
04:22 60.6 °F /  15.9 °C 56.7 °F /  13.7 °C 30.2 in /  1020.9 hPa Calm   2 mph /  3.2 km/h 87 % 0 in /  0.0 mm
04:32 60.6 °F /  15.9 °C 56.7 °F /  13.7 °C 30.1 in /  1020.5 hPa Calm     87 % 0 in /  0.0 mm
04:42 61 °F /  16.1 °C 56.5 °F /  13.6 °C 30.1 in /  1020.5 hPa Calm     85 % 0 in /  0.0 mm
04:47 60.4 °F /  15.8 °C 56.3 °F /  13.5 °C 30.1 in /  1020.5 hPa Calm     86 % 0 in /  0.0 mm
04:52 60.1 °F /  15.6 °C 56.5 °F /  13.6 °C 30.1 in /  1020.5 hPa Calm     88 % 0 in /  0.0 mm
05:02 59.7 °F /  15.4 °C 56.1 °F /  13.4 °C 30.1 in /  1020.5 hPa Calm     88 % 0 in /  0.0 mm
05:22 60.3 °F /  15.7 °C 56.1 °F /  13.4 °C 30.1 in /  1020.5 hPa Calm   1 mph /  1.6 km/h 86 % 0 in /  0.0 mm
05:32 59.7 °F /  15.4 °C 55.8 °F /  13.2 °C 30.1 in /  1020.5 hPa Calm   1 mph /  1.6 km/h 87 % 0 in /  0.0 mm
05:42 59.5 °F /  15.3 °C 55.9 °F /  13.3 °C 30.1 in /  1020.5 hPa North 1 mph /  1.6 km/h 1 mph /  1.6 km/h 88 % 0 in /  0.0 mm
05:47 59.5 °F /  15.3 °C 55.6 °F /  13.1 °C 30.1 in /  1020.2 hPa Calm   2 mph /  3.2 km/h 87 % 0 in /  0.0 mm
05:52 59.5 °F /  15.3 °C 55.9 °F /  13.3 °C 30.1 in /  1020.5 hPa Calm   2 mph /  3.2 km/h 88 % 0 in /  0.0 mm
05:57 59.4 °F /  15.2 °C 55.8 °F /  13.2 °C 30.1 in /  1020.5 hPa Calm   1 mph /  1.6 km/h 88 % 0 in /  0.0 mm
06:02 59.4 °F /  15.2 °C 55.8 °F /  13.2 °C 30.1 in /  1020.5 hPa Calm   1 mph /  1.6 km/h 88 % 0 in /  0.0 mm
06:12 59.2 °F /  15.1 °C 55.6 °F /  13.1 °C 30.1 in /  1020.5 hPa Calm     88 % 0 in /  0.0 mm
06:17 59.2 °F /  15.1 °C 55.6 °F /  13.1 °C 30.1 in /  1020.5 hPa Calm     88 % 0 in /  0.0 mm
06:22 58.8 °F /  14.9 °C 55.2 °F /  12.9 °C 30.1 in /  1020.5 hPa Calm     88 % 0 in /  0.0 mm
06:32 58.3 °F /  14.6 °C 55 °F /  12.8 °C 30.1 in /  1020.5 hPa Calm     89 % 0 in /  0.0 mm
06:42 58.5 °F /  14.7 °C 55.6 °F /  13.1 °C 30.1 in /  1020.2 hPa Calm     90 % 0 in /  0.0 mm
06:52 58.5 °F /  14.7 °C 55.6 °F /  13.1 °C 30.1 in /  1020.2 hPa Calm     90 % 0 in /  0.0 mm
07:02 58.3 °F /  14.6 °C 55.4 °F /  13.0 °C 30.1 in /  1020.2 hPa North 1 mph /  1.6 km/h   90 % 0 in /  0.0 mm
07:12 58.1 °F /  14.5 °C 55.2 °F /  12.9 °C 30.1 in /  1020.2 hPa Calm   2 mph /  3.2 km/h 90 % 0 in /  0.0 mm
07:17 58.3 °F /  14.6 °C 55.4 °F /  13.0 °C 30.1 in /  1020.5 hPa Calm   2 mph /  3.2 km/h 90 % 0 in /  0.0 mm
07:22 58.3 °F /  14.6 °C 55.4 °F /  13.0 °C 30.1 in /  1020.2 hPa Calm   2 mph /  3.2 km/h 90 % 0 in /  0.0 mm
07:32 58.6 °F /  14.8 °C 55.8 °F /  13.2 °C 30.1 in /  1020.2 hPa Calm   1 mph /  1.6 km/h 90 % 0 in /  0.0 mm
07:42 59.2 °F /  15.1 °C 55.9 °F /  13.3 °C 30.1 in /  1020.5 hPa Calm   1 mph /  1.6 km/h 89 % 0 in /  0.0 mm
07:52 59.7 °F /  15.4 °C 56.1 °F /  13.4 °C 30.1 in /  1020.5 hPa Calm   1 mph /  1.6 km/h 88 % 0 in /  0.0 mm
08:02 60.4 °F /  15.8 °C 56.8 °F /  13.8 °C 30.1 in /  1020.2 hPa Calm   1 mph /  1.6 km/h 88 % 0 in /  0.0 mm
08:12 61.5 °F /  16.4 °C 57.4 °F /  14.1 °C 30.1 in /  1020.2 hPa NNE 1 mph /  1.6 km/h 1 mph /  1.6 km/h 86 % 0 in /  0.0 mm
08:17 61.5 °F /  16.4 °C 57 °F /  13.9 °C 30.1 in /  1020.2 hPa NNE 2 mph /  3.2 km/h 2 mph /  3.2 km/h 85 % 0 in /  0.0 mm
08:22 61.9 °F /  16.6 °C 57 °F /  13.9 °C 30.1 in /  1020.2 hPa NE 2 mph /  3.2 km/h 2 mph /  3.2 km/h 84 % 0 in /  0.0 mm
08:32 63 °F /  17.2 °C 57 °F /  13.9 °C 30.1 in /  1020.2 hPa NNE 1 mph /  1.6 km/h 3 mph /  4.8 km/h 81 % 0 in /  0.0 mm
08:42 64 °F /  17.8 °C 57 °F /  13.9 °C 30.1 in /  1019.9 hPa ENE 2 mph /  3.2 km/h 3 mph /  4.8 km/h 78 % 0 in /  0.0 mm
08:47 64.4 °F /  18.0 °C 57.4 °F /  14.1 °C 30.1 in /  1019.9 hPa NE 1 mph /  1.6 km/h 4 mph /  6.4 km/h 78 % 0 in /  0.0 mm
08:52 64.8 °F /  18.2 °C 57.7 °F /  14.3 °C 30.1 in /  1020.2 hPa Calm   4 mph /  6.4 km/h 78 % 0 in /  0.0 mm
09:02 65.5 °F /  18.6 °C 58.1 °F /  14.5 °C 30.1 in /  1020.2 hPa NE 4 mph /  6.4 km/h 4 mph /  6.4 km/h 77 % 0 in /  0.0 mm
09:12 66.2 °F /  19.0 °C 58.1 °F /  14.5 °C 30.1 in /  1019.9 hPa East 4 mph /  6.4 km/h 5 mph /  8.0 km/h 75 % 0 in /  0.0 mm
09:17 66.6 °F /  19.2 °C 58.5 °F /  14.7 °C 30.1 in /  1019.9 hPa East 1 mph /  1.6 km/h 5 mph /  8.0 km/h 75 % 0 in /  0.0 mm
09:22 66.9 °F /  19.4 °C 58.3 °F /  14.6 °C 30.1 in /  1019.9 hPa East 1 mph /  1.6 km/h 5 mph /  8.0 km/h 74 % 0 in /  0.0 mm
09:32 68.2 °F /  20.1 °C 58.8 °F /  14.9 °C 30.1 in /  1019.9 hPa SSE 3 mph /  4.8 km/h 4 mph /  6.4 km/h 72 % 0 in /  0.0 mm
09:42 70 °F /  21.1 °C 57.7 °F /  14.3 °C 30.1 in /  1019.9 hPa East 2 mph /  3.2 km/h 6 mph /  9.7 km/h 65 % 0 in /  0.0 mm
09:52 70.9 °F /  21.6 °C 57.7 °F /  14.3 °C 30.1 in /  1019.9 hPa Calm   6 mph /  9.7 km/h 63 % 0 in /  0.0 mm
10:02 71.2 °F /  21.8 °C 57.9 °F /  14.4 °C 30.1 in /  1019.9 hPa ENE 2 mph /  3.2 km/h 6 mph /  9.7 km/h 63 % 0 in /  0.0 mm
10:12 72.3 °F /  22.4 °C 58.6 °F /  14.8 °C 30.1 in /  1019.9 hPa Calm   7 mph /  11.3 km/h 62 % 0 in /  0.0 mm
10:22 73 °F /  22.8 °C 59.2 °F /  15.1 °C 30.1 in /  1019.9 hPa ESE 1 mph /  1.6 km/h 8 mph /  12.9 km/h 62 % 0 in /  0.0 mm
10:27 73.2 °F /  22.9 °C 58.5 °F /  14.7 °C 30.1 in /  1019.9 hPa South 3 mph /  4.8 km/h 8 mph /  12.9 km/h 60 % 0 in /  0.0 mm
10:37 73.9 °F /  23.3 °C 59.7 °F /  15.4 °C 30.1 in /  1019.9 hPa SSE 1 mph /  1.6 km/h 6 mph /  9.7 km/h 61 % 0 in /  0.0 mm
10:42 74.5 °F /  23.6 °C 59.7 °F /  15.4 °C 30.1 in /  1019.9 hPa ENE 1 mph /  1.6 km/h 6 mph /  9.7 km/h 60 % 0 in /  0.0 mm
10:47 75 °F /  23.9 °C 59.7 °F /  15.4 °C 30.1 in /  1020.2 hPa SSE 2 mph /  3.2 km/h 5 mph /  8.0 km/h 59 % 0 in /  0.0 mm
10:57 75.4 °F /  24.1 °C 59 °F /  15.0 °C 30.1 in /  1019.9 hPa SE 1 mph /  1.6 km/h 5 mph /  8.0 km/h 57 % 0 in /  0.0 mm
11:02 75.9 °F /  24.4 °C 59.2 °F /  15.1 °C 30.1 in /  1019.9 hPa NNE 3 mph /  4.8 km/h 5 mph /  8.0 km/h 56 % 0 in /  0.0 mm
11:12 76.3 °F /  24.6 °C 59 °F /  15.0 °C 30.1 in /  1019.9 hPa East 2 mph /  3.2 km/h 6 mph /  9.7 km/h 55 % 0 in /  0.0 mm
11:17 76.5 °F /  24.7 °C 58.6 °F /  14.8 °C 30.1 in /  1019.9 hPa NE 5 mph /  8.0 km/h 8 mph /  12.9 km/h 54 % 0 in /  0.0 mm
11:22 76.6 °F /  24.8 °C 59.2 °F /  15.1 °C 30.1 in /  1019.9 hPa East 5 mph /  8.0 km/h 8 mph /  12.9 km/h 55 % 0 in /  0.0 mm
11:32 76.8 °F /  24.9 °C 58.5 °F /  14.7 °C 30.1 in /  1019.9 hPa ESE 4 mph /  6.4 km/h 8 mph /  12.9 km/h 53 % 0 in /  0.0 mm
11:42 77.9 °F /  25.5 °C 59.4 °F /  15.2 °C 30.1 in /  1019.9 hPa ESE 1 mph /  1.6 km/h 8 mph /  12.9 km/h 53 % 0 in /  0.0 mm
11:52 78.4 °F /  25.8 °C 58.8 °F /  14.9 °C 30.1 in /  1019.5 hPa SE 8 mph /  12.9 km/h 8 mph /  12.9 km/h 51 % 0 in /  0.0 mm
12:02 79 °F /  26.1 °C 58.8 °F /  14.9 °C 30.1 in /  1019.5 hPa East 4 mph /  6.4 km/h 9 mph /  14.5 km/h 50 % 0 in /  0.0 mm
12:07 79.3 °F /  26.3 °C 59.7 °F /  15.4 °C 30.1 in /  1019.5 hPa NE 2 mph /  3.2 km/h 9 mph /  14.5 km/h 51 % 0 in /  0.0 mm
12:12 79 °F /  26.1 °C 59.4 °F /  15.2 °C 30.1 in /  1019.5 hPa SE 2 mph /  3.2 km/h 9 mph /  14.5 km/h 51 % 0 in /  0.0 mm
12:17 79 °F /  26.1 °C 58.8 °F /  14.9 °C 30.1 in /  1019.5 hPa East 6 mph /  9.7 km/h 9 mph /  14.5 km/h 50 % 0 in /  0.0 mm
12:27 78.4 °F /  25.8 °C 58.3 °F /  14.6 °C 30.1 in /  1019.5 hPa ENE 3 mph /  4.8 km/h 9 mph /  14.5 km/h 50 % 0 in /  0.0 mm
12:32 79 °F /  26.1 °C 58.1 °F /  14.5 °C 30.1 in /  1019.5 hPa ENE 5 mph /  8.0 km/h 9 mph /  14.5 km/h 49 % 0 in /  0.0 mm
12:42 79.7 °F /  26.5 °C 58.8 °F /  14.9 °C 30.1 in /  1019.2 hPa ESE 1 mph /  1.6 km/h 9 mph /  14.5 km/h 49 % 0 in /  0.0 mm
12:47 80.2 °F /  26.8 °C 59.9 °F /  15.5 °C 30.1 in /  1019.2 hPa East 1 mph /  1.6 km/h 9 mph /  14.5 km/h 50 % 0 in /  0.0 mm
12:52 80.2 °F /  26.8 °C 58.8 °F /  14.9 °C 30.1 in /  1019.2 hPa SW 1 mph /  1.6 km/h 9 mph /  14.5 km/h 48 % 0 in /  0.0 mm
13:02 80.8 °F /  27.1 °C 59.2 °F /  15.1 °C 30.1 in /  1019.2 hPa East 5 mph /  8.0 km/h 7 mph /  11.3 km/h 48 % 0 in /  0.0 mm
13:12 80.4 °F /  26.9 °C 58.3 °F /  14.6 °C 30.1 in /  1019.2 hPa Calm   7 mph /  11.3 km/h 47 % 0 in /  0.0 mm
13:17 80.6 °F /  27.0 °C 59.7 °F /  15.4 °C 30.1 in /  1019.2 hPa SSE 3 mph /  4.8 km/h 9 mph /  14.5 km/h 49 % 0 in /  0.0 mm
13:22 81 °F /  27.2 °C 60.1 °F /  15.6 °C 30.1 in /  1018.8 hPa East 5 mph /  8.0 km/h 9 mph /  14.5 km/h 49 % 0 in /  0.0 mm
13:32 81.7 °F /  27.6 °C 60.6 °F /  15.9 °C 30.1 in /  1018.8 hPa Calm   7 mph /  11.3 km/h 49 % 0 in /  0.0 mm
13:42 81.7 °F /  27.6 °C 59.5 °F /  15.3 °C 30.1 in /  1018.8 hPa East 6 mph /  9.7 km/h 9 mph /  14.5 km/h 47 % 0 in /  0.0 mm
13:52 81 °F /  27.2 °C 59.4 °F /  15.2 °C 30.1 in /  1018.5 hPa ENE 5 mph /  8.0 km/h 8 mph /  12.9 km/h 48 % 0 in /  0.0 mm
14:02 82 °F /  27.8 °C 59.2 °F /  15.1 °C 30.1 in /  1018.2 hPa ENE 5 mph /  8.0 km/h 10 mph /  16.1 km/h 46 % 0 in /  0.0 mm
14:07 82.2 °F /  27.9 °C 60.6 °F /  15.9 °C 30.1 in /  1018.5 hPa NNE 7 mph /  11.3 km/h 12 mph /  19.3 km/h 48 % 0 in /  0.0 mm
14:12 81.9 °F /  27.7 °C 60.3 °F /  15.7 °C 30.1 in /  1018.2 hPa East 2 mph /  3.2 km/h 12 mph /  19.3 km/h 48 % 0 in /  0.0 mm
14:17 82.2 °F /  27.9 °C 59.9 °F /  15.5 °C 30.1 in /  1018.2 hPa ENE 12 mph /  19.3 km/h 12 mph /  19.3 km/h 47 % 0 in /  0.0 mm
14:22 82 °F /  27.8 °C 60.4 °F /  15.8 °C 30.1 in /  1018.2 hPa ESE 2 mph /  3.2 km/h 11 mph /  17.7 km/h 48 % 0 in /  0.0 mm
14:32 83.1 °F /  28.4 °C 60.3 °F /  15.7 °C 30.1 in /  1018.2 hPa ENE 5 mph /  8.0 km/h 13 mph /  20.9 km/h 46 % 0 in /  0.0 mm
14:42 82.8 °F /  28.2 °C 60.4 °F /  15.8 °C 30.1 in /  1018.2 hPa NE 7 mph /  11.3 km/h 12 mph /  19.3 km/h 47 % 0 in /  0.0 mm
14:47 82.8 °F /  28.2 °C 60.4 °F /  15.8 °C 30.1 in /  1018.2 hPa ENE 9 mph /  14.5 km/h 13 mph /  20.9 km/h 47 % 0 in /  0.0 mm
14:52 83.1 °F /  28.4 °C 60.3 °F /  15.7 °C 30.1 in /  1017.8 hPa East 5 mph /  8.0 km/h 13 mph /  20.9 km/h 46 % 0 in /  0.0 mm
14:57 83.1 °F /  28.4 °C 60.3 °F /  15.7 °C 30.1 in /  1017.8 hPa East 3 mph /  4.8 km/h 13 mph /  20.9 km/h 46 % 0 in /  0.0 mm
15:02 83.7 °F /  28.7 °C 60.1 °F /  15.6 °C 30.1 in /  1017.8 hPa East 6 mph /  9.7 km/h 13 mph /  20.9 km/h 45 % 0 in /  0.0 mm
15:07 84 °F /  28.9 °C 59.7 °F /  15.4 °C 30.1 in /  1017.8 hPa SE 2 mph /  3.2 km/h 12 mph /  19.3 km/h 44 % 0 in /  0.0 mm
15:12 84 °F /  28.9 °C 59.7 °F /  15.4 °C 30.1 in /  1017.8 hPa ENE 7 mph /  11.3 km/h 12 mph /  19.3 km/h 44 % 0 in /  0.0 mm
15:22 84 °F /  28.9 °C 59.7 °F /  15.4 °C 30.1 in /  1017.8 hPa ENE 3 mph /  4.8 km/h 10 mph /  16.1 km/h 44 % 0 in /  0.0 mm
15:27 84.4 °F /  29.1 °C 60.8 °F /  16.0 °C 30.1 in /  1017.5 hPa ENE 8 mph /  12.9 km/h 10 mph /  16.1 km/h 45 % 0 in /  0.0 mm
15:32 84.4 °F /  29.1 °C 60.1 °F /  15.6 °C 30.1 in /  1017.5 hPa ENE 6 mph /  9.7 km/h 10 mph /  16.1 km/h 44 % 0 in /  0.0 mm
15:42 84.4 °F /  29.1 °C 59.4 °F /  15.2 °C 30.1 in /  1017.5 hPa ENE 5 mph /  8.0 km/h 10 mph /  16.1 km/h 43 % 0 in /  0.0 mm
15:47 84.6 °F /  29.2 °C 60.3 °F /  15.7 °C 30 in /  1017.2 hPa East 7 mph /  11.3 km/h 12 mph /  19.3 km/h 44 % 0 in /  0.0 mm
15:52 84.7 °F /  29.3 °C 59.7 °F /  15.4 °C 30 in /  1017.2 hPa ESE 1 mph /  1.6 km/h 12 mph /  19.3 km/h 43 % 0 in /  0.0 mm
15:57 85.3 °F /  29.6 °C 60.3 °F /  15.7 °C 30 in /  1017.2 hPa NE 4 mph /  6.4 km/h 10 mph /  16.1 km/h 43 % 0 in /  0.0 mm
16:02 85.6 °F /  29.8 °C 60.6 °F /  15.9 °C 30 in /  1017.2 hPa ENE 6 mph /  9.7 km/h 10 mph /  16.1 km/h 43 % 0 in /  0.0 mm
16:12 85.8 °F /  29.9 °C 60.8 °F /  16.0 °C 30 in /  1017.2 hPa ENE 6 mph /  9.7 km/h 10 mph /  16.1 km/h 43 % 0 in /  0.0 mm
16:22 85.8 °F /  29.9 °C 60.1 °F /  15.6 °C 30 in /  1016.8 hPa East 5 mph /  8.0 km/h 8 mph /  12.9 km/h 42 % 0 in /  0.0 mm
16:32 85.8 °F /  29.9 °C 59.4 °F /  15.2 °C 30 in /  1016.5 hPa East 4 mph /  6.4 km/h 9 mph /  14.5 km/h 41 % 0 in /  0.0 mm
16:42 85.8 °F /  29.9 °C 60.1 °F /  15.6 °C 30 in /  1016.5 hPa SE 3 mph /  4.8 km/h 11 mph /  17.7 km/h 42 % 0 in /  0.0 mm
16:47 86.2 °F /  30.1 °C 60.4 °F /  15.8 °C 30 in /  1016.8 hPa ENE 2 mph /  3.2 km/h 10 mph /  16.1 km/h 42 % 0 in /  0.0 mm
16:52 86.5 °F /  30.3 °C 60.8 °F /  16.0 °C 30 in /  1016.5 hPa ESE 7 mph /  11.3 km/h 10 mph /  16.1 km/h 42 % 0 in /  0.0 mm
16:57 86.2 °F /  30.1 °C 59.7 °F /  15.4 °C 30 in /  1016.5 hPa East 3 mph /  4.8 km/h 13 mph /  20.9 km/h 41 % 0 in /  0.0 mm
17:02 86.5 °F /  30.3 °C 60.1 °F /  15.6 °C 30 in /  1016.5 hPa ENE 2 mph /  3.2 km/h 13 mph /  20.9 km/h 41 % 0 in /  0.0 mm
17:12 86.5 °F /  30.3 °C 60.1 °F /  15.6 °C 30 in /  1016.5 hPa Calm   9 mph /  14.5 km/h 41 % 0 in /  0.0 mm
17:17 86.5 °F /  30.3 °C 60.1 °F /  15.6 °C 30 in /  1016.5 hPa East 6 mph /  9.7 km/h 7 mph /  11.3 km/h 41 % 0 in /  0.0 mm
17:22 85.8 °F /  29.9 °C 59.4 °F /  15.2 °C 30 in /  1016.5 hPa ENE 3 mph /  4.8 km/h 7 mph /  11.3 km/h 41 % 0 in /  0.0 mm
17:27 85.6 °F /  29.8 °C 59.9 °F /  15.5 °C 30 in /  1016.5 hPa ESE 3 mph /  4.8 km/h 7 mph /  11.3 km/h 42 % 0 in /  0.0 mm
17:37 85.5 °F /  29.7 °C 60.4 °F /  15.8 °C 30 in /  1016.5 hPa Calm   6 mph /  9.7 km/h 43 % 0 in /  0.0 mm
17:42 85.6 °F /  29.8 °C 59.9 °F /  15.5 °C 30 in /  1016.1 hPa ENE 3 mph /  4.8 km/h 6 mph /  9.7 km/h 42 % 0 in /  0.0 mm
17:47 85.8 °F /  29.9 °C 59.4 °F /  15.2 °C 30 in /  1016.1 hPa ENE 2 mph /  3.2 km/h 6 mph /  9.7 km/h 41 % 0 in /  0.0 mm
17:52 85.8 °F /  29.9 °C 60.1 °F /  15.6 °C 30 in /  1016.1 hPa ENE 1 mph /  1.6 km/h 6 mph /  9.7 km/h 42 % 0 in /  0.0 mm
17:57 86.5 °F /  30.3 °C 60.8 °F /  16.0 °C 30 in /  1016.1 hPa ENE 4 mph /  6.4 km/h 6 mph /  9.7 km/h 42 % 0 in /  0.0 mm
18:02 86.4 °F /  30.2 °C 59.9 °F /  15.5 °C 30 in /  1016.1 hPa ENE 6 mph /  9.7 km/h 6 mph /  9.7 km/h 41 % 0 in /  0.0 mm
18:12 85.8 °F /  29.9 °C 59.4 °F /  15.2 °C 30 in /  1016.1 hPa ENE 4 mph /  6.4 km/h 7 mph /  11.3 km/h 41 % 0 in /  0.0 mm
18:17 85.5 °F /  29.7 °C 59.7 °F /  15.4 °C 30 in /  1016.1 hPa ENE 5 mph /  8.0 km/h 8 mph /  12.9 km/h 42 % 0 in /  0.0 mm
18:22 85.1 °F /  29.5 °C 60.1 °F /  15.6 °C 30 in /  1016.1 hPa East 1 mph /  1.6 km/h 8 mph /  12.9 km/h 43 % 0 in /  0.0 mm
18:27 84.9 °F /  29.4 °C 59.9 °F /  15.5 °C 30 in /  1016.1 hPa East 5 mph /  8.0 km/h 8 mph /  12.9 km/h 43 % 0 in /  0.0 mm
18:32 84.9 °F /  29.4 °C 59.9 °F /  15.5 °C 30 in /  1015.8 hPa East 3 mph /  4.8 km/h 7 mph /  11.3 km/h 43 % 0 in /  0.0 mm
18:37 84.9 °F /  29.4 °C 59.9 °F /  15.5 °C 30 in /  1015.8 hPa East 3 mph /  4.8 km/h 7 mph /  11.3 km/h 43 % 0 in /  0.0 mm
18:42 84.9 °F /  29.4 °C 60.6 °F /  15.9 °C 30 in /  1015.8 hPa ENE 2 mph /  3.2 km/h 8 mph /  12.9 km/h 44 % 0 in /  0.0 mm
18:52 84.6 °F /  29.2 °C 60.3 °F /  15.7 °C 30 in /  1015.8 hPa East 2 mph /  3.2 km/h 6 mph /  9.7 km/h 44 % 0 in /  0.0 mm
18:57 84.4 °F /  29.1 °C 60.1 °F /  15.6 °C 30 in /  1015.8 hPa East 4 mph /  6.4 km/h 7 mph /  11.3 km/h 44 % 0 in /  0.0 mm
19:02 84.2 °F /  29.0 °C 59.9 °F /  15.5 °C 30 in /  1015.8 hPa East 2 mph /  3.2 km/h 7 mph /  11.3 km/h 44 % 0 in /  0.0 mm
19:12 83.8 °F /  28.8 °C 60.3 °F /  15.7 °C 30 in /  1015.5 hPa ENE 2 mph /  3.2 km/h 6 mph /  9.7 km/h 45 % 0 in /  0.0 mm
19:17 83.7 °F /  28.7 °C 60.1 °F /  15.6 °C 30 in /  1015.5 hPa ENE 2 mph /  3.2 km/h 5 mph /  8.0 km/h 45 % 0 in /  0.0 mm
19:22 83.7 °F /  28.7 °C 60.6 °F /  15.9 °C 30 in /  1015.5 hPa East 3 mph /  4.8 km/h 5 mph /  8.0 km/h 46 % 0 in /  0.0 mm
19:27 83.5 °F /  28.6 °C 60.4 °F /  15.8 °C 30 in /  1015.5 hPa East 3 mph /  4.8 km/h 5 mph /  8.0 km/h 46 % 0 in /  0.0 mm
19:32 83.5 °F /  28.6 °C 60.4 °F /  15.8 °C 30 in /  1015.5 hPa Calm   5 mph /  8.0 km/h 46 % 0 in /  0.0 mm
19:37 83.3 °F /  28.5 °C 60.4 °F /  15.8 °C 30 in /  1015.5 hPa ENE 2 mph /  3.2 km/h 5 mph /  8.0 km/h 46 % 0 in /  0.0 mm
19:42 83.1 °F /  28.4 °C 60.3 °F /  15.7 °C 30 in /  1015.5 hPa ENE 4 mph /  6.4 km/h 5 mph /  8.0 km/h 46 % 0 in /  0.0 mm
19:47 83.3 °F /  28.5 °C 60.4 °F /  15.8 °C 30 in /  1015.1 hPa ENE 3 mph /  4.8 km/h 6 mph /  9.7 km/h 46 % 0 in /  0.0 mm
19:52 83.3 °F /  28.5 °C 60.4 °F /  15.8 °C 30 in /  1015.5 hPa Calm   6 mph /  9.7 km/h 46 % 0 in /  0.0 mm
19:57 83.5 °F /  28.6 °C 60.4 °F /  15.8 °C 30 in /  1015.5 hPa ENE 2 mph /  3.2 km/h 7 mph /  11.3 km/h 46 % 0 in /  0.0 mm
20:02 83.3 °F /  28.5 °C 60.4 °F /  15.8 °C 30 in /  1015.5 hPa East 1 mph /  1.6 km/h 7 mph /  11.3 km/h 46 % 0 in /  0.0 mm
20:12 82.9 °F /  28.3 °C 60.1 °F /  15.6 °C 30 in /  1015.5 hPa ENE 1 mph /  1.6 km/h 5 mph /  8.0 km/h 46 % 0 in /  0.0 mm
20:17 82.8 °F /  28.2 °C 60.4 °F /  15.8 °C 30 in /  1015.5 hPa East 1 mph /  1.6 km/h 5 mph /  8.0 km/h 47 % 0 in /  0.0 mm
20:22 82 °F /  27.8 °C 60.4 °F /  15.8 °C 30 in /  1015.5 hPa East 2 mph /  3.2 km/h 5 mph /  8.0 km/h 48 % 0 in /  0.0 mm
20:32 81 °F /  27.2 °C 61.2 °F /  16.2 °C 30 in /  1015.5 hPa NE 1 mph /  1.6 km/h 3 mph /  4.8 km/h 51 % 0 in /  0.0 mm
20:37 80.8 °F /  27.1 °C 61.5 °F /  16.4 °C 30 in /  1015.5 hPa ENE 2 mph /  3.2 km/h 4 mph /  6.4 km/h 52 % 0 in /  0.0 mm
20:42 80.2 °F /  26.8 °C 62.1 °F /  16.7 °C 30 in /  1015.1 hPa NE 5 mph /  8.0 km/h 5 mph /  8.0 km/h 54 % 0 in /  0.0 mm
20:52 79.2 °F /  26.2 °C 61.5 °F /  16.4 °C 30 in /  1015.1 hPa NE 2 mph /  3.2 km/h 5 mph /  8.0 km/h 55 % 0 in /  0.0 mm
21:02 78.3 °F /  25.7 °C 61.7 °F /  16.5 °C 30 in /  1015.1 hPa Calm   5 mph /  8.0 km/h 57 % 0 in /  0.0 mm
21:07 77.5 °F /  25.3 °C 61.5 °F /  16.4 °C 30 in /  1015.5 hPa Calm   3 mph /  4.8 km/h 58 % 0 in /  0.0 mm
21:17 77.2 °F /  25.1 °C 62.2 °F /  16.8 °C 30 in /  1015.5 hPa NW 1 mph /  1.6 km/h 2 mph /  3.2 km/h 60 % 0 in /  0.0 mm
21:22 76.5 °F /  24.7 °C 62.1 °F /  16.7 °C 30 in /  1015.5 hPa Calm   2 mph /  3.2 km/h 61 % 0 in /  0.0 mm
21:32 75.9 °F /  24.4 °C 61.9 °F /  16.6 °C 30 in /  1015.5 hPa Calm   1 mph /  1.6 km/h 62 % 0 in /  0.0 mm
21:37 75.4 °F /  24.1 °C 61.9 °F /  16.6 °C 30 in /  1015.5 hPa NNW 1 mph /  1.6 km/h 1 mph /  1.6 km/h 63 % 0 in /  0.0 mm
21:42 75 °F /  23.9 °C 62.1 °F /  16.7 °C 30 in /  1015.5 hPa North 1 mph /  1.6 km/h 1 mph /  1.6 km/h 64 % 0 in /  0.0 mm
21:47 74.8 °F /  23.8 °C 61.9 °F /  16.6 °C 30 in /  1015.5 hPa Calm   2 mph /  3.2 km/h 64 % 0 in /  0.0 mm
21:52 74.7 °F /  23.7 °C 62.1 °F /  16.7 °C 30 in /  1015.5 hPa NNW 1 mph /  1.6 km/h 2 mph /  3.2 km/h 65 % 0 in /  0.0 mm
22:02 73.6 °F /  23.1 °C 61.9 °F /  16.6 °C 30 in /  1015.5 hPa WNW 1 mph /  1.6 km/h 2 mph /  3.2 km/h 67 % 0 in /  0.0 mm
22:12 73.9 °F /  23.3 °C 61.9 °F /  16.6 °C 30 in /  1015.5 hPa Calm   2 mph /  3.2 km/h 66 % 0 in /  0.0 mm
22:17 73.6 °F /  23.1 °C 61.9 °F /  16.6 °C 30 in /  1015.5 hPa WNW 1 mph /  1.6 km/h 2 mph /  3.2 km/h 67 % 0 in /  0.0 mm
22:22 72.7 °F /  22.6 °C 61.5 °F /  16.4 °C 30 in /  1015.5 hPa WNW 1 mph /  1.6 km/h 2 mph /  3.2 km/h 68 % 0 in /  0.0 mm
22:32 73 °F /  22.8 °C 61.5 °F /  16.4 °C 30 in /  1015.5 hPa Calm   2 mph /  3.2 km/h 67 % 0 in /  0.0 mm
22:37 72.9 °F /  22.7 °C 61.7 °F /  16.5 °C 30 in /  1015.5 hPa WNW 1 mph /  1.6 km/h 3 mph /  4.8 km/h 68 % 0 in /  0.0 mm
22:42 72 °F /  22.2 °C 62.1 °F /  16.7 °C 30 in /  1015.5 hPa WNW 1 mph /  1.6 km/h 3 mph /  4.8 km/h 71 % 0 in /  0.0 mm
22:47 71.8 °F /  22.1 °C 61.5 °F /  16.4 °C 30 in /  1015.5 hPa NW 1 mph /  1.6 km/h 2 mph /  3.2 km/h 70 % 0 in /  0.0 mm
22:52 72.1 °F /  22.3 °C 61.3 °F /  16.3 °C 30 in /  1015.5 hPa NW 1 mph /  1.6 km/h 2 mph /  3.2 km/h 69 % 0 in /  0.0 mm
22:57 72.7 °F /  22.6 °C 61.5 °F /  16.4 °C 30 in /  1015.5 hPa North 2 mph /  3.2 km/h 2 mph /  3.2 km/h 68 % 0 in /  0.0 mm
23:02 72.3 °F /  22.4 °C 61.2 °F /  16.2 °C 30 in /  1015.5 hPa North 1 mph /  1.6 km/h 2 mph /  3.2 km/h 68 % 0 in /  0.0 mm
23:12 72.9 °F /  22.7 °C 61.3 °F /  16.3 °C 30 in /  1015.5 hPa Calm   2 mph /  3.2 km/h 67 % 0 in /  0.0 mm
23:17 72.1 °F /  22.3 °C 61.3 °F /  16.3 °C 30 in /  1015.5 hPa WNW 1 mph /  1.6 km/h 2 mph /  3.2 km/h 69 % 0 in /  0.0 mm
23:22 71.2 °F /  21.8 °C 61.7 °F /  16.5 °C 30 in /  1015.5 hPa WNW 2 mph /  3.2 km/h 2 mph /  3.2 km/h 72 % 0 in /  0.0 mm
23:27 70.9 °F /  21.6 °C 61.9 °F /  16.6 °C 30 in /  1015.5 hPa WNW 1 mph /  1.6 km/h 2 mph /  3.2 km/h 73 % 0 in /  0.0 mm
23:32 70.3 °F /  21.3 °C 61.3 °F /  16.3 °C 30 in /  1015.5 hPa WNW 1 mph /  1.6 km/h 2 mph /  3.2 km/h 73 % 0 in /  0.0 mm
23:42 70.9 °F /  21.6 °C 61.3 °F /  16.3 °C 30 in /  1015.5 hPa Calm   2 mph /  3.2 km/h 72 % 0 in /  0.0 mm
23:47 71.1 °F /  21.7 °C 61.5 °F /  16.4 °C 30 in /  1015.5 hPa Calm   1 mph /  1.6 km/h 72 % 0 in /  0.0 mm
23:52 71.1 °F /  21.7 °C 61.5 °F /  16.4 °C 30 in /  1015.5 hPa Calm   1 mph /  1.6 km/h 72 % 0 in /  0.0 mm
23:57 70.3 °F /  21.3 °C 61.3 °F /  16.3 °C 30 in /  1015.5 hPa Calm   1 mph /  1.6 km/h 73 % 0 in /  0.0 mm
Meteo18
Compliments of Weather Underground - 4 mb

Script developed by  Jim McMurry - jmcmurry@mwt.net Adapted for the template by  Wim van der Kuil - Leuven-Template.eu

You find our weather info also at:

European Weather Network

Weather Underground

Equipment we use:

Weather-station
Davis Vue

Weather-program
Meteohub

Weather-server
Raspberry PI 2 B+

Provider
1 and 1

Davis Vue

Meteohub

Raspberry PI 2 B+

1 and 1